sensor_id;sensor_type;location;lat;lon;timestamp;P1;durP1;ratioP1;P2;durP2;ratioP2
63095;SDS011;49184;55.596;37.770;2022-07-24T00:01:19;78.85;;;37.33;;
63095;SDS011;49184;55.596;37.770;2022-07-24T00:07:12;133.40;;;53.57;;
63095;SDS011;49184;55.596;37.770;2022-07-24T00:09:43;156.40;;;70.45;;
63095;SDS011;49184;55.596;37.770;2022-07-24T00:12:09;300.60;;;136.98;;
63095;SDS011;49184;55.596;37.770;2022-07-24T00:17:40;124.93;;;60.33;;
63095;SDS011;49184;55.596;37.770;2022-07-24T00:20:31;104.00;;;44.78;;
63095;SDS011;49184;55.596;37.770;2022-07-24T00:23:00;89.78;;;40.28;;
63095;SDS011;49184;55.596;37.770;2022-07-24T00:35:37;85.88;;;35.08;;
63095;SDS011;49184;55.596;37.770;2022-07-24T00:38:06;80.90;;;34.63;;
63095;SDS011;49184;55.596;37.770;2022-07-24T00:40:55;77.90;;;34.13;;
63095;SDS011;49184;55.596;37.770;2022-07-24T00:47:26;83.03;;;34.97;;
63095;SDS011;49184;55.596;37.770;2022-07-24T00:49:55;95.38;;;33.85;;
63095;SDS011;49184;55.596;37.770;2022-07-24T00:52:53;72.75;;;32.72;;
63095;SDS011;49184;55.596;37.770;2022-07-24T00:55:26;86.03;;;31.45;;
63095;SDS011;49184;55.596;37.770;2022-07-24T01:06:47;68.68;;;26.63;;
63095;SDS011;49184;55.596;37.770;2022-07-24T01:16:12;62.20;;;28.00;;
63095;SDS011;49184;55.596;37.770;2022-07-24T01:21:55;74.15;;;29.27;;
63095;SDS011;49184;55.596;37.770;2022-07-24T01:27:53;68.90;;;27.67;;
63095;SDS011;49184;55.596;37.770;2022-07-24T01:33:30;61.88;;;27.95;;
63095;SDS011;49184;55.596;37.770;2022-07-24T01:36:43;70.63;;;27.90;;
63095;SDS011;49184;55.596;37.770;2022-07-24T01:39:12;73.85;;;28.65;;
63095;SDS011;49184;55.596;37.770;2022-07-24T01:44:58;74.82;;;29.90;;
63095;SDS011;49184;55.596;37.770;2022-07-24T02:04:01;75.35;;;30.73;;
63095;SDS011;49184;55.596;37.770;2022-07-24T02:06:41;83.85;;;28.67;;
63095;SDS011;49184;55.596;37.770;2022-07-24T02:12:01;63.85;;;28.67;;
63095;SDS011;49184;55.596;37.770;2022-07-24T02:15:19;64.38;;;27.90;;
63095;SDS011;49184;55.596;37.770;2022-07-24T02:18:42;69.80;;;28.55;;
63095;SDS011;49184;55.596;37.770;2022-07-24T02:21:44;56.28;;;28.08;;
63095;SDS011;49184;55.596;37.770;2022-07-24T02:24:59;76.43;;;27.75;;
63095;SDS011;49184;55.596;37.770;2022-07-24T02:27:46;66.05;;;28.90;;
63095;SDS011;49184;55.596;37.770;2022-07-24T02:40:13;63.53;;;27.73;;
63095;SDS011;49184;55.596;37.770;2022-07-24T02:42:49;60.92;;;27.92;;
63095;SDS011;49184;55.596;37.770;2022-07-24T02:45:49;56.30;;;27.45;;
63095;SDS011;49184;55.596;37.770;2022-07-24T02:48:48;61.72;;;27.75;;
63095;SDS011;49184;55.596;37.770;2022-07-24T02:51:46;60.47;;;28.30;;
63095;SDS011;49184;55.596;37.770;2022-07-24T02:54:50;61.60;;;27.52;;
63095;SDS011;49184;55.596;37.770;2022-07-24T02:58:19;74.88;;;29.92;;
63095;SDS011;49184;55.596;37.770;2022-07-24T03:05:09;76.68;;;28.98;;
63095;SDS011;49184;55.596;37.770;2022-07-24T03:12:06;65.18;;;27.52;;
63095;SDS011;49184;55.596;37.770;2022-07-24T03:14:33;64.88;;;26.17;;
63095;SDS011;49184;55.596;37.770;2022-07-24T03:20:49;52.88;;;25.50;;
63095;SDS011;49184;55.596;37.770;2022-07-24T03:26:08;66.93;;;25.92;;
63095;SDS011;49184;55.596;37.770;2022-07-24T03:28:46;66.75;;;26.60;;
63095;SDS011;49184;55.596;37.770;2022-07-24T03:31:15;60.35;;;19.83;;
63095;SDS011;49184;55.596;37.770;2022-07-24T03:37:23;34.63;;;16.63;;
63095;SDS011;49184;55.596;37.770;2022-07-24T03:53:39;36.20;;;15.00;;
63095;SDS011;49184;55.596;37.770;2022-07-24T03:56:31;52.10;;;22.70;;
63095;SDS011;49184;55.596;37.770;2022-07-24T03:59:23;46.35;;;19.55;;
63095;SDS011;49184;55.596;37.770;2022-07-24T04:05:51;27.15;;;13.73;;
63095;SDS011;49184;55.596;37.770;2022-07-24T04:12:57;23.90;;;12.20;;
63095;SDS011;49184;55.596;37.770;2022-07-24T04:16:21;27.40;;;13.20;;
63095;SDS011;49184;55.596;37.770;2022-07-24T04:19:29;58.10;;;17.85;;
63095;SDS011;49184;55.596;37.770;2022-07-24T04:34:55;26.88;;;10.95;;
63095;SDS011;49184;55.596;37.770;2022-07-24T04:38:33;47.67;;;12.00;;
63095;SDS011;49184;55.596;37.770;2022-07-24T04:42:10;28.55;;;10.63;;
63095;SDS011;49184;55.596;37.770;2022-07-24T04:48:46;69.60;;;15.63;;
63095;SDS011;49184;55.596;37.770;2022-07-24T04:51:13;111.18;;;19.00;;
63095;SDS011;49184;55.596;37.770;2022-07-24T04:54:06;39.28;;;13.43;;
63095;SDS011;49184;55.596;37.770;2022-07-24T05:00:17;27.30;;;11.10;;
63095;SDS011;49184;55.596;37.770;2022-07-24T05:02:43;29.13;;;12.00;;
63095;SDS011;49184;55.596;37.770;2022-07-24T05:05:17;59.45;;;16.15;;
63095;SDS011;49184;55.596;37.770;2022-07-24T05:10:58;22.77;;;11.57;;
63095;SDS011;49184;55.596;37.770;2022-07-24T05:13:27;14.63;;;9.25;;
63095;SDS011;49184;55.596;37.770;2022-07-24T05:15:54;29.48;;;10.93;;
63095;SDS011;49184;55.596;37.770;2022-07-24T05:18:23;22.65;;;10.07;;
63095;SDS011;49184;55.596;37.770;2022-07-24T05:20:51;26.77;;;10.05;;
63095;SDS011;49184;55.596;37.770;2022-07-24T05:24:18;22.42;;;9.98;;
63095;SDS011;49184;55.596;37.770;2022-07-24T05:27:04;68.55;;;25.42;;
63095;SDS011;49184;55.596;37.770;2022-07-24T05:29:45;35.75;;;13.10;;
63095;SDS011;49184;55.596;37.770;2022-07-24T05:32:56;37.30;;;13.57;;
63095;SDS011;49184;55.596;37.770;2022-07-24T05:44:34;24.80;;;11.18;;
63095;SDS011;49184;55.596;37.770;2022-07-24T05:47:05;75.15;;;15.93;;
63095;SDS011;49184;55.596;37.770;2022-07-24T05:50:17;68.70;;;18.63;;
63095;SDS011;49184;55.596;37.770;2022-07-24T05:52:45;36.35;;;13.75;;
63095;SDS011;49184;55.596;37.770;2022-07-24T05:55:16;22.17;;;9.45;;
63095;SDS011;49184;55.596;37.770;2022-07-24T06:01:23;36.60;;;11.25;;
63095;SDS011;49184;55.596;37.770;2022-07-24T06:13:34;52.17;;;11.77;;
63095;SDS011;49184;55.596;37.770;2022-07-24T06:18:26;31.95;;;13.68;;
63095;SDS011;49184;55.596;37.770;2022-07-24T06:20:53;23.00;;;12.48;;
63095;SDS011;49184;55.596;37.770;2022-07-24T06:25:46;21.70;;;11.20;;
63095;SDS011;49184;55.596;37.770;2022-07-24T06:28:25;23.88;;;10.77;;
63095;SDS011;49184;55.596;37.770;2022-07-24T06:34:23;21.40;;;12.38;;
63095;SDS011;49184;55.596;37.770;2022-07-24T06:36:53;26.27;;;12.50;;
63095;SDS011;49184;55.596;37.770;2022-07-24T06:39:19;20.73;;;11.63;;
63095;SDS011;49184;55.596;37.770;2022-07-24T06:41:45;19.88;;;11.73;;
63095;SDS011;49184;55.596;37.770;2022-07-24T06:44:24;26.42;;;11.65;;
63095;SDS011;49184;55.596;37.770;2022-07-24T06:46:50;30.58;;;11.20;;
63095;SDS011;49184;55.596;37.770;2022-07-24T06:49:17;20.17;;;11.30;;
63095;SDS011;49184;55.596;37.770;2022-07-24T06:51:52;15.90;;;10.48;;
63095;SDS011;49184;55.596;37.770;2022-07-24T06:54:18;20.88;;;10.30;;
63095;SDS011;49184;55.596;37.770;2022-07-24T06:56:44;19.48;;;9.75;;
63095;SDS011;49184;55.596;37.770;2022-07-24T06:59:11;17.25;;;9.68;;
63095;SDS011;49184;55.596;37.770;2022-07-24T07:01:47;18.10;;;11.07;;
63095;SDS011;49184;55.596;37.770;2022-07-24T07:07:04;19.48;;;11.20;;
63095;SDS011;49184;55.596;37.770;2022-07-24T07:12:40;15.40;;;11.18;;
63095;SDS011;49184;55.596;37.770;2022-07-24T07:15:06;21.88;;;11.15;;
63095;SDS011;49184;55.596;37.770;2022-07-24T07:17:46;12.38;;;9.38;;
63095;SDS011;49184;55.596;37.770;2022-07-24T07:23:21;17.50;;;9.98;;
63095;SDS011;49184;55.596;37.770;2022-07-24T07:25:47;15.48;;;9.18;;
63095;SDS011;49184;55.596;37.770;2022-07-24T07:28:14;14.57;;;9.18;;
63095;SDS011;49184;55.596;37.770;2022-07-24T07:30:44;15.00;;;9.25;;
63095;SDS011;49184;55.596;37.770;2022-07-24T07:33:16;17.63;;;8.65;;
63095;SDS011;49184;55.596;37.770;2022-07-24T07:38:38;11.73;;;8.00;;
63095;SDS011;49184;55.596;37.770;2022-07-24T07:41:05;12.68;;;7.50;;
63095;SDS011;49184;55.596;37.770;2022-07-24T07:43:32;13.57;;;7.60;;
63095;SDS011;49184;55.596;37.770;2022-07-24T07:55:50;16.05;;;7.50;;
63095;SDS011;49184;55.596;37.770;2022-07-24T07:58:18;13.10;;;8.05;;
63095;SDS011;49184;55.596;37.770;2022-07-24T08:00:48;16.13;;;9.23;;
63095;SDS011;49184;55.596;37.770;2022-07-24T08:03:15;10.48;;;7.68;;
63095;SDS011;49184;55.596;37.770;2022-07-24T08:05:41;10.38;;;6.82;;
63095;SDS011;49184;55.596;37.770;2022-07-24T08:08:07;10.45;;;6.07;;
63095;SDS011;49184;55.596;37.770;2022-07-24T08:13:11;11.18;;;6.88;;
63095;SDS011;49184;55.596;37.770;2022-07-24T08:15:41;15.30;;;7.38;;
63095;SDS011;49184;55.596;37.770;2022-07-24T08:21:44;20.50;;;7.85;;
63095;SDS011;49184;55.596;37.770;2022-07-24T08:24:38;16.38;;;6.70;;
63095;SDS011;49184;55.596;37.770;2022-07-24T08:30:23;12.48;;;7.32;;
63095;SDS011;49184;55.596;37.770;2022-07-24T08:33:03;14.63;;;6.43;;
63095;SDS011;49184;55.596;37.770;2022-07-24T08:35:29;16.60;;;7.15;;
63095;SDS011;49184;55.596;37.770;2022-07-24T08:37:55;9.90;;;7.53;;
63095;SDS011;49184;55.596;37.770;2022-07-24T08:40:23;11.15;;;7.20;;
63095;SDS011;49184;55.596;37.770;2022-07-24T08:42:52;10.82;;;7.47;;
63095;SDS011;49184;55.596;37.770;2022-07-24T08:50:53;14.23;;;8.00;;
63095;SDS011;49184;55.596;37.770;2022-07-24T09:02:25;17.25;;;9.35;;
63095;SDS011;49184;55.596;37.770;2022-07-24T09:11:13;10.00;;;6.65;;
63095;SDS011;49184;55.596;37.770;2022-07-24T09:13:48;16.27;;;6.97;;
63095;SDS011;49184;55.596;37.770;2022-07-24T09:20:07;10.00;;;7.78;;
63095;SDS011;49184;55.596;37.770;2022-07-24T09:22:39;12.80;;;7.90;;
63095;SDS011;49184;55.596;37.770;2022-07-24T09:25:14;10.55;;;7.30;;
63095;SDS011;49184;55.596;37.770;2022-07-24T09:27:55;12.57;;;8.35;;
63095;SDS011;49184;55.596;37.770;2022-07-24T09:33:38;21.77;;;8.20;;
63095;SDS011;49184;55.596;37.770;2022-07-24T09:38:57;19.38;;;7.07;;
63095;SDS011;49184;55.596;37.770;2022-07-24T09:44:40;15.18;;;6.80;;
63095;SDS011;49184;55.596;37.770;2022-07-24T09:47:22;11.48;;;6.65;;
63095;SDS011;49184;55.596;37.770;2022-07-24T09:49:52;9.90;;;6.97;;
63095;SDS011;49184;55.596;37.770;2022-07-24T09:52:38;12.95;;;6.90;;
63095;SDS011;49184;55.596;37.770;2022-07-24T09:55:57;8.82;;;6.85;;
63095;SDS011;49184;55.596;37.770;2022-07-24T10:01:42;21.90;;;9.68;;
63095;SDS011;49184;55.596;37.770;2022-07-24T10:04:10;11.90;;;7.65;;
63095;SDS011;49184;55.596;37.770;2022-07-24T10:06:39;26.35;;;9.52;;
63095;SDS011;49184;55.596;37.770;2022-07-24T10:09:31;12.40;;;7.03;;
63095;SDS011;49184;55.596;37.770;2022-07-24T10:11:59;10.93;;;7.07;;
63095;SDS011;49184;55.596;37.770;2022-07-24T10:14:29;13.57;;;7.47;;
63095;SDS011;49184;55.596;37.770;2022-07-24T10:23:28;13.95;;;6.68;;
63095;SDS011;49184;55.596;37.770;2022-07-24T10:26:53;16.67;;;6.70;;
63095;SDS011;49184;55.596;37.770;2022-07-24T10:45:41;7.93;;;6.38;;
63095;SDS011;49184;55.596;37.770;2022-07-24T10:51:59;8.75;;;6.90;;
63095;SDS011;49184;55.596;37.770;2022-07-24T10:54:41;9.10;;;6.57;;
63095;SDS011;49184;55.596;37.770;2022-07-24T10:57:09;6.80;;;6.00;;
63095;SDS011;49184;55.596;37.770;2022-07-24T10:59:39;21.20;;;6.47;;
63095;SDS011;49184;55.596;37.770;2022-07-24T11:02:28;9.70;;;6.35;;
63095;SDS011;49184;55.596;37.770;2022-07-24T11:11:16;12.00;;;6.32;;
63095;SDS011;49184;55.596;37.770;2022-07-24T11:13:48;8.30;;;6.35;;
63095;SDS011;49184;55.596;37.770;2022-07-24T11:16:42;9.20;;;7.55;;
63095;SDS011;49184;55.596;37.770;2022-07-24T11:24:29;18.10;;;7.07;;
63095;SDS011;49184;55.596;37.770;2022-07-24T11:29:52;16.35;;;7.07;;
63095;SDS011;49184;55.596;37.770;2022-07-24T11:32:22;14.50;;;7.10;;
63095;SDS011;49184;55.596;37.770;2022-07-24T11:44:59;14.00;;;7.00;;
63095;SDS011;49184;55.596;37.770;2022-07-24T11:50:19;10.43;;;6.88;;
63095;SDS011;49184;55.596;37.770;2022-07-24T11:52:49;11.02;;;6.88;;
63095;SDS011;49184;55.596;37.770;2022-07-24T11:55:19;9.63;;;6.55;;
63095;SDS011;49184;55.596;37.770;2022-07-24T11:58:06;16.58;;;7.05;;
63095;SDS011;49184;55.596;37.770;2022-07-24T12:03:27;17.52;;;7.20;;
63095;SDS011;49184;55.596;37.770;2022-07-24T12:05:54;15.20;;;7.38;;
63095;SDS011;49184;55.596;37.770;2022-07-24T12:08:26;17.48;;;7.10;;
63095;SDS011;49184;55.596;37.770;2022-07-24T12:10:57;15.57;;;7.00;;
63095;SDS011;49184;55.596;37.770;2022-07-24T12:24:30;13.38;;;7.88;;
63095;SDS011;49184;55.596;37.770;2022-07-24T12:26:57;23.58;;;7.88;;
63095;SDS011;49184;55.596;37.770;2022-07-24T12:29:30;9.43;;;7.00;;
63095;SDS011;49184;55.596;37.770;2022-07-24T12:32:15;11.20;;;6.80;;
63095;SDS011;49184;55.596;37.770;2022-07-24T12:37:37;13.48;;;7.00;;
63095;SDS011;49184;55.596;37.770;2022-07-24T12:40:07;10.88;;;6.60;;
63095;SDS011;49184;55.596;37.770;2022-07-24T12:43:06;9.63;;;6.78;;
63095;SDS011;49184;55.596;37.770;2022-07-24T12:45:36;12.57;;;6.95;;
63095;SDS011;49184;55.596;37.770;2022-07-24T12:48:21;11.80;;;7.43;;
63095;SDS011;49184;55.596;37.770;2022-07-24T12:50:58;16.98;;;7.40;;
63095;SDS011;49184;55.596;37.770;2022-07-24T12:53:26;10.32;;;6.90;;
63095;SDS011;49184;55.596;37.770;2022-07-24T12:59:33;9.80;;;7.30;;
63095;SDS011;49184;55.596;37.770;2022-07-24T13:02:15;10.98;;;7.30;;
63095;SDS011;49184;55.596;37.770;2022-07-24T13:04:50;16.50;;;7.63;;
63095;SDS011;49184;55.596;37.770;2022-07-24T13:07:24;13.60;;;6.78;;
63095;SDS011;49184;55.596;37.770;2022-07-24T13:09:54;8.82;;;6.97;;
63095;SDS011;49184;55.596;37.770;2022-07-24T13:12:22;12.50;;;6.63;;
63095;SDS011;49184;55.596;37.770;2022-07-24T13:14:49;8.85;;;6.30;;
63095;SDS011;49184;55.596;37.770;2022-07-24T13:17:25;14.02;;;6.90;;
63095;SDS011;49184;55.596;37.770;2022-07-24T13:19:53;15.95;;;7.13;;
63095;SDS011;49184;55.596;37.770;2022-07-24T13:22:20;9.95;;;6.25;;
63095;SDS011;49184;55.596;37.770;2022-07-24T13:24:49;14.63;;;7.95;;
63095;SDS011;49184;55.596;37.770;2022-07-24T13:28:00;21.77;;;6.43;;
63095;SDS011;49184;55.596;37.770;2022-07-24T13:30:33;8.38;;;6.90;;
63095;SDS011;49184;55.596;37.770;2022-07-24T13:33:17;26.55;;;7.90;;
63095;SDS011;49184;55.596;37.770;2022-07-24T13:36:32;9.75;;;6.72;;
63095;SDS011;49184;55.596;37.770;2022-07-24T13:39:24;14.70;;;8.52;;
63095;SDS011;49184;55.596;37.770;2022-07-24T13:45:09;11.10;;;6.72;;
63095;SDS011;49184;55.596;37.770;2022-07-24T13:47:38;11.57;;;6.93;;
63095;SDS011;49184;55.596;37.770;2022-07-24T13:50:08;9.70;;;6.30;;
63095;SDS011;49184;55.596;37.770;2022-07-24T13:52:40;12.43;;;7.03;;
63095;SDS011;49184;55.596;37.770;2022-07-24T13:55:07;13.00;;;6.20;;
63095;SDS011;49184;55.596;37.770;2022-07-24T13:58:00;11.80;;;6.60;;
63095;SDS011;49184;55.596;37.770;2022-07-24T14:03:45;11.32;;;7.10;;
63095;SDS011;49184;55.596;37.770;2022-07-24T14:13:30;13.35;;;6.70;;
63095;SDS011;49184;55.596;37.770;2022-07-24T14:16:38;14.13;;;6.57;;
63095;SDS011;49184;55.596;37.770;2022-07-24T14:29:51;18.42;;;6.80;;
63095;SDS011;49184;55.596;37.770;2022-07-24T14:33:27;14.63;;;6.63;;
63095;SDS011;49184;55.596;37.770;2022-07-24T14:36:32;16.63;;;7.07;;
63095;SDS011;49184;55.596;37.770;2022-07-24T14:39:23;17.48;;;7.10;;
63095;SDS011;49184;55.596;37.770;2022-07-24T14:41:50;12.38;;;7.10;;
63095;SDS011;49184;55.596;37.770;2022-07-24T14:44:26;103.47;;;9.43;;
63095;SDS011;49184;55.596;37.770;2022-07-24T14:50:40;9.57;;;6.55;;
63095;SDS011;49184;55.596;37.770;2022-07-24T14:53:10;10.02;;;6.88;;
63095;SDS011;49184;55.596;37.770;2022-07-24T14:58:59;11.50;;;7.07;;
63095;SDS011;49184;55.596;37.770;2022-07-24T15:01:26;16.10;;;7.07;;
63095;SDS011;49184;55.596;37.770;2022-07-24T15:03:52;18.30;;;6.93;;
63095;SDS011;49184;55.596;37.770;2022-07-24T15:06:21;14.57;;;6.60;;
63095;SDS011;49184;55.596;37.770;2022-07-24T15:11:22;14.30;;;8.52;;
63095;SDS011;49184;55.596;37.770;2022-07-24T15:13:52;19.52;;;7.95;;
63095;SDS011;49184;55.596;37.770;2022-07-24T15:16:21;10.50;;;6.68;;
63095;SDS011;49184;55.596;37.770;2022-07-24T15:18:49;15.90;;;7.20;;
63095;SDS011;49184;55.596;37.770;2022-07-24T15:24:45;21.65;;;8.63;;
63095;SDS011;49184;55.596;37.770;2022-07-24T15:27:14;15.48;;;7.50;;
63095;SDS011;49184;55.596;37.770;2022-07-24T15:29:42;21.85;;;8.13;;
63095;SDS011;49184;55.596;37.770;2022-07-24T15:34:43;18.10;;;6.97;;
63095;SDS011;49184;55.596;37.770;2022-07-24T15:37:10;16.90;;;7.68;;
63095;SDS011;49184;55.596;37.770;2022-07-24T15:39:39;13.02;;;7.40;;
63095;SDS011;49184;55.596;37.770;2022-07-24T15:42:24;22.45;;;7.55;;
63095;SDS011;49184;55.596;37.770;2022-07-24T15:44:50;20.05;;;8.18;;
63095;SDS011;49184;55.596;37.770;2022-07-24T15:47:21;13.57;;;7.50;;
63095;SDS011;49184;55.596;37.770;2022-07-24T15:49:48;13.80;;;7.60;;
63095;SDS011;49184;55.596;37.770;2022-07-24T15:52:15;22.33;;;7.05;;
63095;SDS011;49184;55.596;37.770;2022-07-24T15:54:50;18.27;;;7.10;;
63095;SDS011;49184;55.596;37.770;2022-07-24T15:57:16;37.72;;;8.05;;
63095;SDS011;49184;55.596;37.770;2022-07-24T15:59:42;21.70;;;7.18;;
63095;SDS011;49184;55.596;37.770;2022-07-24T16:02:14;12.80;;;7.32;;
63095;SDS011;49184;55.596;37.770;2022-07-24T16:04:41;17.40;;;7.60;;
63095;SDS011;49184;55.596;37.770;2022-07-24T16:07:09;11.43;;;7.50;;
63095;SDS011;49184;55.596;37.770;2022-07-24T16:09:41;14.45;;;8.27;;
63095;SDS011;49184;55.596;37.770;2022-07-24T16:12:11;13.45;;;9.20;;
63095;SDS011;49184;55.596;37.770;2022-07-24T16:14:37;15.52;;;8.32;;
63095;SDS011;49184;55.596;37.770;2022-07-24T16:35:23;21.17;;;8.90;;
63095;SDS011;49184;55.596;37.770;2022-07-24T16:39:26;19.45;;;7.85;;
63095;SDS011;49184;55.596;37.770;2022-07-24T16:52:37;17.50;;;8.45;;
63095;SDS011;49184;55.596;37.770;2022-07-24T16:58:44;19.52;;;9.25;;
63095;SDS011;49184;55.596;37.770;2022-07-24T17:01:34;16.70;;;9.18;;
63095;SDS011;49184;55.596;37.770;2022-07-24T17:12:20;29.80;;;15.73;;
63095;SDS011;49184;55.596;37.770;2022-07-24T17:29:07;15.43;;;8.93;;
63095;SDS011;49184;55.596;37.770;2022-07-24T17:31:56;17.90;;;8.68;;
63095;SDS011;49184;55.596;37.770;2022-07-24T17:34:23;18.60;;;10.07;;
63095;SDS011;49184;55.596;37.770;2022-07-24T17:39:45;22.30;;;9.90;;
63095;SDS011;49184;55.596;37.770;2022-07-24T17:49:18;13.52;;;9.05;;
63095;SDS011;49184;55.596;37.770;2022-07-24T18:02:39;27.30;;;9.50;;
63095;SDS011;49184;55.596;37.770;2022-07-24T18:05:07;21.05;;;8.52;;
63095;SDS011;49184;55.596;37.770;2022-07-24T18:08:05;18.13;;;7.88;;
63095;SDS011;49184;55.596;37.770;2022-07-24T18:16:51;24.58;;;8.98;;
63095;SDS011;49184;55.596;37.770;2022-07-24T18:19:59;21.42;;;8.98;;
63095;SDS011;49184;55.596;37.770;2022-07-24T18:22:29;14.93;;;8.82;;
63095;SDS011;49184;55.596;37.770;2022-07-24T18:25:00;26.98;;;11.80;;
63095;SDS011;49184;55.596;37.770;2022-07-24T18:27:47;39.25;;;11.60;;
63095;SDS011;49184;55.596;37.770;2022-07-24T18:30:15;21.13;;;11.70;;
63095;SDS011;49184;55.596;37.770;2022-07-24T18:40:34;23.98;;;11.63;;
63095;SDS011;49184;55.596;37.770;2022-07-24T18:46:03;27.70;;;13.00;;
63095;SDS011;49184;55.596;37.770;2022-07-24T18:49:33;23.30;;;12.07;;
63095;SDS011;49184;55.596;37.770;2022-07-24T18:52:06;26.33;;;12.10;;
63095;SDS011;49184;55.596;37.770;2022-07-24T18:54:40;29.48;;;12.52;;
63095;SDS011;49184;55.596;37.770;2022-07-24T18:57:06;22.42;;;11.48;;
63095;SDS011;49184;55.596;37.770;2022-07-24T18:59:52;19.92;;;11.07;;
63095;SDS011;49184;55.596;37.770;2022-07-24T19:02:49;18.63;;;10.90;;
63095;SDS011;49184;55.596;37.770;2022-07-24T19:05:23;28.15;;;11.52;;
63095;SDS011;49184;55.596;37.770;2022-07-24T19:10:28;48.60;;;30.25;;
63095;SDS011;49184;55.596;37.770;2022-07-24T19:12:56;73.47;;;49.13;;
63095;SDS011;49184;55.596;37.770;2022-07-24T19:15:22;71.72;;;40.00;;
63095;SDS011;49184;55.596;37.770;2022-07-24T19:23:35;40.22;;;19.33;;
63095;SDS011;49184;55.596;37.770;2022-07-24T19:26:03;41.08;;;17.85;;
63095;SDS011;49184;55.596;37.770;2022-07-24T19:28:29;36.58;;;16.58;;
63095;SDS011;49184;55.596;37.770;2022-07-24T19:30:58;34.70;;;16.25;;
63095;SDS011;49184;55.596;37.770;2022-07-24T19:36:29;35.15;;;13.98;;
63095;SDS011;49184;55.596;37.770;2022-07-24T19:39:03;34.72;;;13.82;;
63095;SDS011;49184;55.596;37.770;2022-07-24T19:41:32;27.13;;;12.98;;
63095;SDS011;49184;55.596;37.770;2022-07-24T19:44:13;32.35;;;13.07;;
63095;SDS011;49184;55.596;37.770;2022-07-24T19:46:43;21.48;;;12.77;;
63095;SDS011;49184;55.596;37.770;2022-07-24T19:49:10;31.20;;;13.98;;
63095;SDS011;49184;55.596;37.770;2022-07-24T19:54:58;31.70;;;19.90;;
63095;SDS011;49184;55.596;37.770;2022-07-24T20:00:43;39.25;;;24.55;;
63095;SDS011;49184;55.596;37.770;2022-07-24T20:03:10;44.03;;;24.35;;
63095;SDS011;49184;55.596;37.770;2022-07-24T20:05:37;45.28;;;24.20;;
63095;SDS011;49184;55.596;37.770;2022-07-24T20:08:07;37.45;;;22.95;;
63095;SDS011;49184;55.596;37.770;2022-07-24T20:10:33;39.30;;;21.08;;
63095;SDS011;49184;55.596;37.770;2022-07-24T20:13:05;38.47;;;19.60;;
63095;SDS011;49184;55.596;37.770;2022-07-24T20:15:33;49.08;;;18.00;;
63095;SDS011;49184;55.596;37.770;2022-07-24T20:18:01;44.70;;;19.20;;
63095;SDS011;49184;55.596;37.770;2022-07-24T20:20:27;42.45;;;19.50;;
63095;SDS011;49184;55.596;37.770;2022-07-24T20:22:57;36.28;;;19.23;;
63095;SDS011;49184;55.596;37.770;2022-07-24T20:25:23;46.28;;;19.70;;
63095;SDS011;49184;55.596;37.770;2022-07-24T20:27:51;36.20;;;17.42;;
63095;SDS011;49184;55.596;37.770;2022-07-24T20:30:19;37.10;;;16.20;;
63095;SDS011;49184;55.596;37.770;2022-07-24T20:32:46;43.97;;;17.10;;
63095;SDS011;49184;55.596;37.770;2022-07-24T20:35:14;27.75;;;15.13;;
63095;SDS011;49184;55.596;37.770;2022-07-24T20:40:59;32.58;;;17.52;;
63095;SDS011;49184;55.596;37.770;2022-07-24T20:46:55;53.97;;;29.33;;
63095;SDS011;49184;55.596;37.770;2022-07-24T20:49:24;80.32;;;47.75;;
63095;SDS011;49184;55.596;37.770;2022-07-24T20:56:02;159.75;;;105.45;;
63095;SDS011;49184;55.596;37.770;2022-07-24T20:58:32;158.40;;;100.60;;
63095;SDS011;49184;55.596;37.770;2022-07-24T21:01:00;135.93;;;85.32;;
63095;SDS011;49184;55.596;37.770;2022-07-24T21:03:35;127.22;;;68.82;;
63095;SDS011;49184;55.596;37.770;2022-07-24T21:06:04;111.15;;;65.93;;
63095;SDS011;49184;55.596;37.770;2022-07-24T21:09:18;104.50;;;59.80;;
63095;SDS011;49184;55.596;37.770;2022-07-24T21:11:48;50.72;;;30.23;;
63095;SDS011;49184;55.596;37.770;2022-07-24T21:14:24;52.58;;;28.73;;
63095;SDS011;49184;55.596;37.770;2022-07-24T21:16:54;46.95;;;26.45;;
63095;SDS011;49184;55.596;37.770;2022-07-24T21:20:23;44.88;;;20.80;;
63095;SDS011;49184;55.596;37.770;2022-07-24T21:23:11;35.42;;;19.55;;
63095;SDS011;49184;55.596;37.770;2022-07-24T21:25:46;42.33;;;21.20;;
63095;SDS011;49184;55.596;37.770;2022-07-24T21:31:40;34.13;;;16.92;;
63095;SDS011;49184;55.596;37.770;2022-07-24T21:34:42;36.07;;;16.23;;
63095;SDS011;49184;55.596;37.770;2022-07-24T21:37:33;32.67;;;15.27;;
63095;SDS011;49184;55.596;37.770;2022-07-24T21:40:02;43.47;;;15.20;;
63095;SDS011;49184;55.596;37.770;2022-07-24T21:42:48;43.63;;;14.85;;
63095;SDS011;49184;55.596;37.770;2022-07-24T21:45:19;30.33;;;13.85;;
63095;SDS011;49184;55.596;37.770;2022-07-24T21:47:55;31.40;;;14.33;;
63095;SDS011;49184;55.596;37.770;2022-07-24T21:50:33;34.90;;;15.00;;
63095;SDS011;49184;55.596;37.770;2022-07-24T21:53:07;29.60;;;14.32;;
63095;SDS011;49184;55.596;37.770;2022-07-24T21:58:27;25.92;;;13.48;;
63095;SDS011;49184;55.596;37.770;2022-07-24T22:00:54;26.45;;;13.68;;
63095;SDS011;49184;55.596;37.770;2022-07-24T22:03:21;31.85;;;13.05;;
63095;SDS011;49184;55.596;37.770;2022-07-24T22:05:51;24.52;;;12.75;;
63095;SDS011;49184;55.596;37.770;2022-07-24T22:13:49;26.38;;;12.52;;
63095;SDS011;49184;55.596;37.770;2022-07-24T22:20:07;30.30;;;12.27;;
63095;SDS011;49184;55.596;37.770;2022-07-24T22:22:50;27.65;;;12.57;;
63095;SDS011;49184;55.596;37.770;2022-07-24T22:25:20;20.98;;;12.00;;
63095;SDS011;49184;55.596;37.770;2022-07-24T22:30:55;24.48;;;12.40;;
63095;SDS011;49184;55.596;37.770;2022-07-24T22:33:36;21.70;;;12.00;;
63095;SDS011;49184;55.596;37.770;2022-07-24T22:39:30;20.40;;;11.43;;
63095;SDS011;49184;55.596;37.770;2022-07-24T22:42:17;25.50;;;12.38;;
63095;SDS011;49184;55.596;37.770;2022-07-24T22:44:43;32.05;;;12.15;;
63095;SDS011;49184;55.596;37.770;2022-07-24T22:47:27;28.10;;;12.10;;
63095;SDS011;49184;55.596;37.770;2022-07-24T22:49:58;19.90;;;11.73;;
63095;SDS011;49184;55.596;37.770;2022-07-24T22:52:33;22.30;;;12.80;;
63095;SDS011;49184;55.596;37.770;2022-07-24T22:55:25;27.92;;;11.55;;
63095;SDS011;49184;55.596;37.770;2022-07-24T22:58:07;24.52;;;12.30;;
63095;SDS011;49184;55.596;37.770;2022-07-24T23:00:52;25.92;;;12.00;;
63095;SDS011;49184;55.596;37.770;2022-07-24T23:03:19;23.30;;;11.43;;
63095;SDS011;49184;55.596;37.770;2022-07-24T23:05:50;22.42;;;11.48;;
63095;SDS011;49184;55.596;37.770;2022-07-24T23:08:16;22.35;;;11.98;;
63095;SDS011;49184;55.596;37.770;2022-07-24T23:11:02;20.90;;;11.82;;
63095;SDS011;49184;55.596;37.770;2022-07-24T23:13:29;22.90;;;11.68;;
63095;SDS011;49184;55.596;37.770;2022-07-24T23:16:25;22.60;;;11.98;;
63095;SDS011;49184;55.596;37.770;2022-07-24T23:21:45;19.98;;;12.10;;
63095;SDS011;49184;55.596;37.770;2022-07-24T23:24:11;32.65;;;12.15;;
63095;SDS011;49184;55.596;37.770;2022-07-24T23:27:00;27.20;;;11.77;;
63095;SDS011;49184;55.596;37.770;2022-07-24T23:29:27;64.38;;;12.38;;
63095;SDS011;49184;55.596;37.770;2022-07-24T23:31:59;25.52;;;11.82;;